首页
METAR-TAF:

METAR-TAF

机场 :

蘇克雷元帥國際機場

基多, 厄瓜多尔

纬度: 0-06-48S, 经度: 78-21-31W, 海拔: 2400米

当前天气观测

该预报发布于25分钟前的21:00 UTC
风速17节,风向
温度 21°C
湿度 33%
气压 1025 hPa
能见度10公里或以上
多云层高于4000英尺

METAR: SEQM 182100Z 10017KT 9999 BKN040 21/04 Q1025 NOSIG RMK A3029

时间: 16:25 (21:25 UTC)

预报

该预报发布于5小时和5分钟前的16:20 UTC
预报有效从18日的 18点(UTC)到 19日的 18点(UTC)
风速12节,风向
能见度10公里或以上
多云层高于3000英尺
散云层高于9000英尺
从 19日的 0000点(UTC)
风速4节,风向北转东北
能见度10公里或以上
散云层高于3000英尺
成为
从 19日的 06点(UTC)到 19日的 07点(UTC)
风速3节,风向多变
从 19日的 1200点(UTC)
风速3节,风向多变
能见度10公里或以上
少量云层高于3000英尺

TAF: SEQM 181620Z 1818/1918 36012KT 9999 BKN030 SCT090 FM190000 03004KT 9999 SCT030 BECMG 1906/1907 VRB03KT FM191200 VRB03KT 9999 FEW030 TX23/1819Z TN09/1911Z

超过4000个机场的气象观测和天气预报(METAR&TAF报告)。

可查询的气象台以黄色和红色小点在地图上表示。

将鼠标移到小点上方,可查看气象台名称。

然后点击查看天气观测和预报。

如需切换地图:点击带黑十字的绿色按钮放大地图;点击带横线的绿色按钮缩小地图;或者点击绿色箭头查看邻近地区的地图。


METAR-TAF: